createdAt,value
2023-02-23T00:00:51.607Z,8.03
2023-02-23T00:01:48.332Z,8.31
2023-02-23T00:02:45.113Z,8.47
2023-02-23T00:03:44.987Z,8.48
2023-02-23T00:04:42.143Z,8.26
2023-02-23T00:05:39.008Z,8.13
2023-02-23T00:06:37.273Z,7.57
2023-02-23T00:07:34.246Z,8.18
2023-02-23T00:08:32.138Z,8.36
2023-02-23T00:09:35.380Z,8.35
2023-02-23T00:10:34.684Z,8.01
2023-02-23T00:11:33.688Z,7.84
2023-02-23T00:12:30.587Z,7.43
2023-02-23T00:13:27.317Z,7.50
2023-02-23T00:14:29.154Z,7.50
2023-02-23T00:15:27.951Z,7.66
2023-02-23T00:16:26.537Z,7.95
2023-02-23T00:17:24.512Z,8.13
2023-02-23T00:18:22.930Z,8.05
2023-02-23T00:19:24.930Z,8.07
2023-02-23T00:20:27.723Z,8.17
2023-02-23T00:21:29.877Z,7.22
2023-02-23T00:22:27.128Z,7.23
2023-02-23T00:23:27.421Z,7.22
2023-02-23T00:24:27.049Z,7.92
2023-02-23T00:25:25.345Z,7.06
2023-02-23T00:26:25.191Z,7.55
2023-02-23T00:27:22.151Z,7.60
2023-02-23T00:28:18.969Z,8.11
2023-02-23T00:29:19.000Z,6.87
2023-02-23T00:30:18.850Z,8.10
2023-02-23T00:31:19.305Z,7.39
2023-02-23T00:32:20.094Z,7.66
2023-02-23T00:33:19.089Z,6.95
2023-02-23T00:34:21.524Z,7.35
2023-02-23T00:35:19.439Z,7.81
2023-02-23T00:36:16.516Z,7.73
2023-02-23T00:37:13.584Z,7.48
2023-02-23T00:38:10.808Z,7.96
2023-02-23T00:39:22.217Z,7.53
2023-02-23T00:40:23.877Z,7.45
2023-02-23T00:41:28.577Z,6.41
2023-02-23T00:42:32.258Z,7.14
2023-02-23T00:43:33.950Z,7.26
2023-02-23T00:44:33.880Z,7.47
2023-02-23T00:45:30.708Z,7.65
2023-02-23T00:46:30.368Z,7.73
2023-02-23T00:47:27.137Z,7.56
2023-02-23T00:48:24.053Z,7.62
2023-02-23T00:49:23.060Z,7.64
2023-02-23T00:50:19.935Z,7.23
2023-02-23T00:51:19.149Z,7.88
2023-02-23T00:52:18.619Z,8.18
2023-02-23T00:53:15.830Z,7.77
2023-02-23T00:54:17.705Z,8.41
2023-02-23T00:55:15.608Z,8.09
2023-02-23T00:56:15.074Z,7.72
2023-02-23T00:57:11.840Z,8.20
2023-02-23T00:58:09.685Z,7.76
2023-02-23T00:59:07.125Z,8.38
2023-02-23T01:00:21.508Z,8.48
2023-02-23T01:01:19.475Z,8.43
2023-02-23T01:02:16.513Z,8.44
2023-02-23T01:03:13.336Z,8.71
2023-02-23T01:04:13.419Z,8.11
2023-02-23T01:05:11.770Z,8.72
2023-02-23T01:06:13.181Z,8.64
2023-02-23T01:07:13.049Z,8.58
2023-02-23T01:08:11.012Z,8.39
2023-02-23T01:09:11.122Z,8.12
2023-02-23T01:10:21.941Z,7.84
2023-02-23T01:11:22.335Z,8.17
2023-02-23T01:12:19.126Z,8.41
2023-02-23T01:13:18.126Z,8.39
2023-02-23T01:14:15.488Z,8.63
2023-02-23T01:15:12.221Z,8.67
2023-02-23T01:16:13.044Z,8.31
2023-02-23T01:17:09.824Z,8.62
2023-02-23T01:18:07.227Z,8.47
2023-02-23T01:19:04.972Z,8.63
2023-02-23T01:20:01.828Z,8.59
2023-02-23T01:20:58.616Z,8.74
2023-02-23T01:21:55.446Z,8.44
2023-02-23T01:22:52.263Z,8.54
2023-02-23T01:23:50.332Z,7.68
2023-02-23T01:24:47.236Z,7.90
2023-02-23T01:25:45.547Z,8.33
2023-02-23T01:26:45.051Z,8.07
2023-02-23T01:27:42.613Z,7.44
2023-02-23T01:28:39.458Z,7.82
2023-02-23T01:29:36.449Z,7.79
2023-02-23T01:30:33.211Z,7.56
2023-02-23T01:31:30.518Z,6.60
2023-02-23T01:32:27.513Z,8.13
2023-02-23T01:33:24.370Z,8.03
2023-02-23T01:34:21.906Z,7.93
2023-02-23T01:35:18.822Z,7.75
2023-02-23T01:36:15.661Z,6.69
2023-02-23T01:37:12.423Z,7.83
2023-02-23T01:38:10.104Z,8.00
2023-02-23T01:39:12.196Z,8.06
2023-02-23T01:40:15.312Z,7.63
2023-02-23T01:41:12.197Z,5.14
2023-02-23T01:42:15.076Z,5.89
2023-02-23T01:43:14.416Z,7.33
2023-02-23T01:44:13.958Z,7.33
2023-02-23T01:45:19.919Z,7.22
2023-02-23T01:46:17.082Z,7.03
2023-02-23T01:47:14.600Z,7.07
2023-02-23T01:48:17.488Z,7.14
2023-02-23T01:49:20.546Z,6.80
2023-02-23T01:50:22.065Z,6.82
2023-02-23T01:51:23.885Z,7.28
2023-02-23T01:52:20.954Z,6.74
2023-02-23T01:53:21.579Z,7.11
2023-02-23T01:54:31.203Z,6.42
2023-02-23T01:55:29.904Z,7.11
2023-02-23T01:56:34.504Z,5.62
2023-02-23T01:57:31.765Z,6.61
2023-02-23T01:58:30.569Z,6.89
2023-02-23T01:59:39.850Z,6.82
2023-02-23T02:00:36.834Z,6.86
2023-02-23T02:01:33.645Z,6.91
2023-02-23T02:02:33.907Z,7.00
2023-02-23T02:03:38.346Z,7.34
2023-02-23T02:04:44.528Z,6.92
2023-02-23T02:05:42.294Z,6.99
2023-02-23T02:06:40.260Z,6.49
2023-02-23T02:07:39.618Z,6.73
2023-02-23T02:08:47.614Z,6.76
2023-02-23T02:10:05.911Z,6.64
2023-02-23T02:11:09.723Z,6.35
2023-02-23T02:12:11.658Z,6.96
2023-02-23T02:13:14.852Z,7.32
2023-02-23T02:14:21.003Z,7.14
2023-02-23T02:15:19.730Z,7.12
2023-02-23T02:16:35.107Z,6.63
2023-02-23T02:17:56.869Z,6.74
2023-02-23T02:19:37.228Z,6.76
2023-02-23T02:20:57.223Z,6.65
2023-02-23T02:21:53.980Z,6.67
2023-02-23T02:23:14.604Z,6.85
2023-02-23T02:24:32.586Z,6.20
2023-02-23T02:25:41.036Z,6.60
2023-02-23T02:26:46.766Z,7.19
2023-02-23T02:28:22.317Z,6.90
2023-02-23T02:29:58.259Z,6.88
2023-02-23T02:31:24.085Z,6.93
2023-02-23T02:33:04.142Z,6.78
2023-02-23T02:34:32.818Z,6.55
2023-02-23T02:36:22.808Z,6.96
2023-02-23T02:37:49.685Z,7.25
2023-02-23T02:39:10.453Z,6.96
2023-02-23T02:40:39.684Z,3.67
2023-02-23T02:41:42.524Z,6.70
2023-02-23T02:42:55.233Z,6.50
2023-02-23T02:44:07.603Z,6.51
2023-02-23T02:45:55.474Z,6.62
2023-02-23T02:47:01.283Z,5.92
2023-02-23T02:48:00.853Z,6.32
2023-02-23T02:49:02.520Z,6.68
2023-02-23T02:50:22.520Z,5.65
2023-02-23T02:51:23.125Z,6.55
2023-02-23T02:52:43.377Z,6.92
2023-02-23T02:53:58.436Z,7.20
2023-02-23T02:55:12.252Z,7.39
2023-02-23T02:56:11.789Z,7.31
2023-02-23T02:57:12.812Z,7.39
2023-02-23T02:58:12.841Z,7.06
2023-02-23T02:59:33.051Z,6.82
2023-02-23T03:00:55.067Z,6.57
2023-02-23T03:02:10.233Z,6.69
2023-02-23T03:03:27.606Z,7.17
2023-02-23T03:04:43.994Z,6.89
2023-02-23T03:06:07.971Z,6.89
2023-02-23T03:07:38.574Z,6.91
2023-02-23T03:09:08.244Z,6.42
2023-02-23T03:10:27.623Z,6.74
2023-02-23T03:11:54.083Z,6.33
2023-02-23T03:13:34.029Z,6.54
2023-02-23T03:14:59.571Z,5.82
2023-02-23T03:16:33.439Z,6.91
2023-02-23T03:17:51.811Z,6.73
2023-02-23T03:19:25.905Z,6.59
2023-02-23T03:20:53.542Z,6.99
2023-02-23T03:22:26.915Z,6.33
2023-02-23T03:24:07.885Z,6.25
2023-02-23T03:25:34.937Z,5.83
2023-02-23T03:27:03.958Z,6.07
2023-02-23T03:28:36.904Z,6.07
2023-02-23T03:30:25.258Z,6.05
2023-02-23T03:31:58.833Z,6.09
2023-02-23T03:33:29.730Z,6.11
2023-02-23T03:34:55.560Z,5.68
2023-02-23T03:36:21.710Z,5.98
2023-02-23T03:38:01.076Z,5.44
2023-02-23T03:39:37.009Z,6.07
2023-02-23T03:40:57.904Z,6.14
2023-02-23T03:42:18.744Z,6.24
2023-02-23T03:43:44.119Z,6.28
2023-02-23T03:45:06.354Z,6.09
2023-02-23T03:46:27.625Z,5.99
2023-02-23T03:47:50.625Z,4.55
2023-02-23T03:49:11.270Z,5.77
2023-02-23T03:50:47.200Z,5.88
2023-02-23T03:52:12.060Z,5.51
2023-02-23T03:53:33.158Z,5.70
2023-02-23T03:55:13.153Z,5.67
2023-02-23T03:56:33.787Z,5.34
2023-02-23T03:57:54.929Z,4.57
2023-02-23T03:59:18.025Z,5.43
2023-02-23T04:00:43.307Z,5.78
2023-02-23T04:01:59.666Z,5.73
2023-02-23T04:03:19.007Z,6.10
2023-02-23T04:04:34.575Z,6.06
2023-02-23T04:05:53.762Z,5.91
2023-02-23T04:07:14.173Z,6.09
2023-02-23T04:08:35.975Z,5.95
2023-02-23T04:09:51.260Z,3.79
2023-02-23T04:11:18.249Z,6.88
2023-02-23T04:12:46.364Z,6.82
2023-02-23T04:13:49.971Z,6.95
2023-02-23T04:14:57.597Z,6.84
2023-02-23T04:16:00.782Z,6.48
2023-02-23T04:16:58.840Z,6.26
2023-02-23T04:17:56.513Z,5.59
2023-02-23T04:18:53.651Z,2.82
2023-02-23T04:19:52.568Z,5.93
2023-02-23T04:20:49.330Z,6.57
2023-02-23T04:21:46.059Z,6.59
2023-02-23T04:22:42.893Z,6.70
2023-02-23T04:23:42.724Z,5.96
2023-02-23T04:24:39.503Z,5.60
2023-02-23T04:25:36.249Z,4.65
2023-02-23T04:26:36.011Z,5.15
2023-02-23T04:27:32.704Z,5.18
2023-02-23T04:28:29.477Z,4.20
2023-02-23T04:29:26.358Z,5.43
2023-02-23T04:30:25.778Z,5.42
2023-02-23T04:31:25.367Z,5.47
2023-02-23T04:32:22.430Z,5.57
2023-02-23T04:33:25.029Z,4.69
2023-02-23T04:34:21.827Z,5.55
2023-02-23T04:35:18.789Z,5.51
2023-02-23T04:36:15.661Z,5.69
2023-02-23T04:37:13.429Z,5.44
2023-02-23T04:38:10.293Z,5.38
2023-02-23T04:39:06.999Z,5.50
2023-02-23T04:40:04.001Z,4.71
2023-02-23T04:41:00.872Z,5.82
2023-02-23T04:41:57.623Z,5.54
2023-02-23T04:42:55.489Z,6.24
2023-02-23T04:43:52.259Z,5.93
2023-02-23T04:44:49.558Z,5.69
2023-02-23T04:45:46.493Z,5.32
2023-02-23T04:46:43.482Z,5.72
2023-02-23T04:47:40.291Z,5.27
2023-02-23T04:48:37.115Z,5.39
2023-02-23T04:49:34.016Z,5.37
2023-02-23T04:50:32.562Z,5.54
2023-02-23T04:51:32.331Z,5.33
2023-02-23T04:52:29.188Z,5.40
2023-02-23T04:53:27.152Z,5.05
2023-02-23T04:54:23.958Z,4.36
2023-02-23T04:55:24.063Z,5.53
2023-02-23T04:56:20.877Z,5.67
2023-02-23T04:57:17.694Z,5.83
2023-02-23T04:58:14.734Z,5.09
2023-02-23T04:59:11.530Z,4.89
2023-02-23T05:00:09.238Z,5.32
2023-02-23T05:01:09.887Z,5.22
2023-02-23T05:02:07.220Z,5.16
2023-02-23T05:03:06.545Z,4.39
2023-02-23T05:04:03.505Z,5.87
2023-02-23T05:05:00.456Z,5.12
2023-02-23T05:05:57.232Z,5.52
2023-02-23T05:06:53.992Z,5.83
2023-02-23T05:07:50.935Z,5.77
2023-02-23T05:09:06.353Z,5.29
2023-02-23T05:10:05.292Z,5.28
2023-02-23T05:11:02.161Z,4.85
2023-02-23T05:11:59.229Z,4.68
2023-02-23T05:12:56.379Z,5.43
2023-02-23T05:13:54.257Z,4.76
2023-02-23T05:14:51.392Z,5.05
2023-02-23T05:15:50.202Z,5.29
2023-02-23T05:16:47.024Z,5.30
2023-02-23T05:17:43.935Z,5.58
2023-02-23T05:18:40.747Z,6.19
2023-02-23T05:19:38.004Z,6.01
2023-02-23T05:20:34.954Z,6.40
2023-02-23T05:21:31.812Z,6.37
2023-02-23T05:22:28.718Z,6.54
2023-02-23T05:23:25.450Z,4.97
2023-02-23T05:24:22.516Z,5.69
2023-02-23T05:25:19.340Z,5.55
2023-02-23T05:26:16.787Z,5.32
2023-02-23T05:27:14.098Z,4.36
2023-02-23T05:28:10.893Z,5.66
2023-02-23T05:29:07.791Z,5.60
2023-02-23T05:30:07.830Z,4.37
2023-02-23T05:31:05.528Z,5.21
2023-02-23T05:32:02.541Z,5.38
2023-02-23T05:32:59.645Z,5.59
2023-02-23T05:33:56.352Z,4.71
2023-02-23T05:34:53.105Z,5.28
2023-02-23T05:35:49.981Z,5.28
2023-02-23T05:36:46.781Z,5.00
2023-02-23T05:37:44.710Z,5.29
2023-02-23T05:38:41.434Z,5.47
2023-02-23T05:39:40.873Z,5.26
2023-02-23T05:40:37.678Z,5.38
2023-02-23T05:41:34.836Z,5.11
2023-02-23T05:42:31.700Z,4.69
2023-02-23T05:43:28.918Z,5.28
2023-02-23T05:44:25.708Z,5.23
2023-02-23T05:45:23.613Z,5.36
2023-02-23T05:46:24.230Z,5.87
2023-02-23T05:47:20.983Z,5.56
2023-02-23T05:48:17.712Z,5.34
2023-02-23T05:49:14.584Z,5.47
2023-02-23T05:50:11.800Z,5.26
2023-02-23T05:51:12.706Z,5.59
2023-02-23T05:52:09.495Z,6.04
2023-02-23T05:53:06.361Z,5.49
2023-02-23T05:54:03.250Z,5.70
2023-02-23T05:55:00.229Z,5.47
2023-02-23T05:55:57.003Z,5.14
2023-02-23T05:56:53.849Z,3.59
2023-02-23T05:57:53.415Z,5.43
2023-02-23T05:58:53.838Z,5.51
2023-02-23T05:59:50.794Z,5.55
2023-02-23T06:00:47.721Z,5.72
2023-02-23T06:01:44.597Z,5.29
2023-02-23T06:02:42.135Z,5.37
2023-02-23T06:03:39.476Z,4.97
2023-02-23T06:04:36.488Z,5.78
2023-02-23T06:05:33.207Z,5.80
2023-02-23T06:06:29.996Z,6.06
2023-02-23T06:07:26.785Z,6.15
2023-02-23T06:08:25.605Z,5.93
2023-02-23T06:09:22.328Z,5.76
2023-02-23T06:10:19.231Z,5.93
2023-02-23T06:11:16.199Z,4.80
2023-02-23T06:12:13.096Z,5.97
2023-02-23T06:13:10.472Z,5.80
2023-02-23T06:14:07.470Z,5.82
2023-02-23T06:15:04.702Z,5.99
2023-02-23T06:16:01.608Z,6.07
2023-02-23T06:16:59.777Z,4.92
2023-02-23T06:17:56.844Z,6.13
2023-02-23T06:18:58.888Z,6.74
2023-02-23T06:19:55.797Z,6.83
2023-02-23T06:20:52.646Z,7.38
2023-02-23T06:21:49.441Z,7.45
2023-02-23T06:22:46.415Z,7.13
2023-02-23T06:23:43.309Z,7.45
2023-02-23T06:24:40.087Z,7.00
2023-02-23T06:25:36.944Z,6.91
2023-02-23T06:26:35.288Z,6.41
2023-02-23T06:27:32.130Z,7.17
2023-02-23T06:28:29.779Z,6.91
2023-02-23T06:29:27.150Z,6.91
2023-02-23T06:30:24.325Z,7.64
2023-02-23T06:31:21.750Z,7.24
2023-02-23T06:32:18.887Z,7.12
2023-02-23T06:33:15.861Z,7.82
2023-02-23T06:34:12.656Z,7.33
2023-02-23T06:35:09.684Z,7.34
2023-02-23T06:36:06.843Z,6.46
2023-02-23T06:37:03.645Z,6.38
2023-02-23T06:38:01.805Z,7.53
2023-02-23T06:38:59.656Z,7.62
2023-02-23T06:39:56.432Z,7.81
2023-02-23T06:40:53.252Z,7.25
2023-02-23T06:41:50.033Z,7.02
2023-02-23T06:42:47.234Z,7.05
2023-02-23T06:43:44.764Z,7.95
2023-02-23T06:44:41.535Z,8.24
2023-02-23T06:45:38.495Z,7.78
2023-02-23T06:46:36.310Z,7.65
2023-02-23T06:47:33.712Z,7.74
2023-02-23T06:48:30.600Z,7.51
2023-02-23T06:49:27.352Z,7.42
2023-02-23T06:50:26.175Z,7.55
2023-02-23T06:51:23.884Z,7.94
2023-02-23T06:52:21.374Z,7.68
2023-02-23T06:53:18.451Z,8.24
2023-02-23T06:54:16.234Z,8.18
2023-02-23T06:55:19.116Z,7.40
2023-02-23T06:56:15.891Z,7.48
2023-02-23T06:57:12.709Z,8.37
2023-02-23T06:58:09.728Z,5.72
2023-02-23T06:59:08.914Z,8.00
2023-02-23T07:00:06.350Z,7.72
2023-02-23T07:01:03.256Z,7.93
2023-02-23T07:02:00.094Z,8.56
2023-02-23T07:02:57.945Z,7.62
2023-02-23T07:03:54.765Z,7.78
2023-02-23T07:04:51.587Z,7.52
2023-02-23T07:05:50.178Z,7.87
2023-02-23T07:06:47.048Z,7.99
2023-02-23T07:07:44.043Z,7.60
2023-02-23T07:08:40.806Z,7.99
2023-02-23T07:09:39.761Z,7.77
2023-02-23T07:10:36.541Z,8.25
2023-02-23T07:11:33.440Z,8.27
2023-02-23T07:12:35.740Z,7.95
2023-02-23T07:13:32.685Z,7.95
2023-02-23T07:14:29.592Z,8.19
2023-02-23T07:15:26.497Z,8.08
2023-02-23T07:16:23.972Z,7.31
2023-02-23T07:17:20.693Z,7.40
2023-02-23T07:18:17.520Z,7.89
2023-02-23T07:19:14.275Z,8.32
2023-02-23T07:20:11.813Z,8.72
2023-02-23T07:21:08.651Z,8.74
2023-02-23T07:22:05.981Z,8.71
2023-02-23T07:23:02.894Z,7.66
2023-02-23T07:24:01.072Z,8.57
2023-02-23T07:24:58.088Z,7.27
2023-02-23T07:25:58.125Z,7.67
2023-02-23T07:26:55.324Z,7.08
2023-02-23T07:27:54.114Z,8.13
2023-02-23T07:28:54.120Z,8.50
2023-02-23T07:29:51.075Z,8.67
2023-02-23T07:30:50.022Z,8.02
2023-02-23T07:31:46.977Z,7.68
2023-02-23T07:32:43.835Z,8.49
2023-02-23T07:33:40.826Z,8.17
2023-02-23T07:34:40.337Z,7.42
2023-02-23T07:35:37.190Z,8.71
2023-02-23T07:36:34.085Z,8.05
2023-02-23T07:37:30.923Z,8.82
2023-02-23T07:38:28.741Z,8.18
2023-02-23T07:39:25.731Z,7.94
2023-02-23T07:40:22.668Z,9.30
2023-02-23T07:41:19.807Z,9.19
2023-02-23T07:42:16.880Z,9.30
2023-02-23T07:43:13.663Z,9.27
2023-02-23T07:44:10.509Z,7.95
2023-02-23T07:45:08.264Z,8.48
2023-02-23T07:46:05.612Z,8.98
2023-02-23T07:47:02.684Z,9.37
2023-02-23T07:48:00.109Z,8.43
2023-02-23T07:48:56.962Z,8.44
2023-02-23T07:49:53.707Z,9.90
2023-02-23T07:50:50.456Z,9.22
2023-02-23T07:51:47.463Z,8.80
2023-02-23T07:52:44.620Z,8.71
2023-02-23T07:53:42.345Z,9.02
2023-02-23T07:54:39.257Z,9.30
2023-02-23T07:55:38.436Z,9.12
2023-02-23T07:56:35.590Z,9.32
2023-02-23T07:57:33.113Z,9.31
2023-02-23T07:58:31.614Z,8.71
2023-02-23T07:59:28.670Z,9.30
2023-02-23T08:00:27.292Z,9.86
2023-02-23T08:01:24.532Z,9.96
2023-02-23T08:02:21.554Z,10.02
2023-02-23T08:03:18.674Z,10.23
2023-02-23T08:04:15.611Z,10.43
2023-02-23T08:05:12.912Z,9.56
2023-02-23T08:06:09.677Z,10.33
2023-02-23T08:07:07.640Z,9.90
2023-02-23T08:08:04.820Z,9.16
2023-02-23T08:09:03.876Z,10.07
2023-02-23T08:10:28.001Z,9.75
2023-02-23T08:11:24.804Z,10.43
2023-02-23T08:12:21.541Z,8.31
2023-02-23T08:13:18.400Z,10.39
2023-02-23T08:14:15.314Z,10.68
2023-02-23T08:15:12.335Z,10.75
2023-02-23T08:16:09.245Z,10.83
2023-02-23T08:17:06.086Z,10.53
2023-02-23T08:18:03.207Z,10.45
2023-02-23T08:19:01.273Z,10.30
2023-02-23T08:19:58.050Z,9.89
2023-02-23T08:21:05.098Z,10.13
2023-02-23T08:22:01.964Z,10.53
2023-02-23T08:22:59.726Z,10.59
2023-02-23T08:23:57.732Z,10.86
2023-02-23T08:24:54.518Z,9.97
2023-02-23T08:25:51.250Z,11.21
2023-02-23T08:26:50.005Z,10.15
2023-02-23T08:27:47.924Z,10.97
2023-02-23T08:28:46.545Z,10.58
2023-02-23T08:29:43.353Z,9.55
2023-02-23T08:30:41.707Z,10.97
2023-02-23T08:31:38.658Z,9.57
2023-02-23T08:32:36.294Z,11.15
2023-02-23T08:33:33.373Z,11.02
2023-02-23T08:34:30.536Z,11.30
2023-02-23T08:35:27.946Z,11.58
2023-02-23T08:36:24.939Z,11.20
2023-02-23T08:37:21.737Z,11.62
2023-02-23T08:38:18.853Z,11.77
2023-02-23T08:39:16.419Z,10.75
2023-02-23T08:40:15.606Z,11.11
2023-02-23T08:41:12.706Z,10.66
2023-02-23T08:42:09.639Z,11.27
2023-02-23T08:43:06.365Z,11.57
2023-02-23T08:44:03.250Z,11.51
2023-02-23T08:45:01.484Z,11.67
2023-02-23T08:45:58.487Z,11.73
2023-02-23T08:46:55.784Z,11.83
2023-02-23T08:47:54.634Z,11.75
2023-02-23T08:48:52.560Z,11.82
2023-02-23T08:49:50.851Z,11.51
2023-02-23T08:50:49.960Z,10.33
2023-02-23T08:51:47.176Z,11.45
2023-02-23T08:52:44.009Z,11.59
2023-02-23T08:53:40.988Z,11.77
2023-02-23T08:54:37.842Z,11.89
2023-02-23T08:55:35.677Z,11.76
2023-02-23T08:56:50.982Z,11.69
2023-02-23T08:58:09.466Z,11.83
2023-02-23T08:59:25.749Z,11.89
2023-02-23T09:00:40.833Z,11.75
2023-02-23T09:01:56.124Z,12.35
2023-02-23T09:03:11.729Z,11.44
2023-02-23T09:04:27.161Z,11.59
2023-02-23T09:05:44.309Z,12.10
2023-02-23T09:06:59.700Z,12.12
2023-02-23T09:08:15.616Z,12.26
2023-02-23T09:09:30.956Z,11.59
2023-02-23T09:10:46.279Z,11.85
2023-02-23T09:12:01.709Z,11.68
2023-02-23T09:13:17.260Z,12.23
2023-02-23T09:14:32.757Z,12.19
2023-02-23T09:15:48.244Z,11.63
2023-02-23T09:17:04.438Z,12.13
2023-02-23T09:18:19.416Z,11.93
2023-02-23T09:19:34.818Z,12.50
2023-02-23T09:20:51.060Z,11.37
2023-02-23T09:22:06.300Z,12.74
2023-02-23T09:23:21.776Z,12.50
2023-02-23T09:24:38.398Z,12.50
2023-02-23T09:25:54.073Z,12.49
2023-02-23T09:27:12.607Z,12.51
2023-02-23T09:28:31.175Z,11.56
2023-02-23T09:29:46.390Z,12.66
2023-02-23T09:31:08.345Z,11.53
2023-02-23T09:32:23.744Z,12.19
2023-02-23T09:33:40.201Z,12.48
2023-02-23T09:34:55.514Z,12.36
2023-02-23T09:36:23.665Z,12.07
2023-02-23T09:37:39.036Z,12.11
2023-02-23T09:38:57.733Z,12.22
2023-02-23T09:40:23.064Z,11.75
2023-02-23T09:42:11.245Z,12.48
2023-02-23T09:43:32.258Z,12.62
2023-02-23T09:44:57.435Z,12.87
2023-02-23T09:46:54.152Z,13.16
2023-02-23T09:48:09.818Z,13.33
2023-02-23T09:49:31.872Z,12.96
2023-02-23T09:50:57.919Z,13.29
2023-02-23T09:52:26.500Z,12.45
2023-02-23T09:53:52.387Z,13.58
2023-02-23T09:55:12.586Z,13.14
2023-02-23T09:56:38.381Z,13.30
2023-02-23T09:57:57.045Z,13.29
2023-02-23T09:59:18.798Z,13.29
2023-02-23T10:00:44.730Z,13.55
2023-02-23T10:02:06.279Z,13.57
2023-02-23T10:03:26.188Z,13.72
2023-02-23T10:04:57.670Z,13.83
2023-02-23T10:06:18.497Z,13.88
2023-02-23T10:07:55.986Z,13.87
2023-02-23T10:09:19.577Z,13.84
2023-02-23T10:10:47.412Z,14.00
2023-02-23T10:12:19.926Z,13.80
2023-02-23T10:14:04.583Z,13.87
2023-02-23T10:15:31.755Z,13.65
2023-02-23T10:16:56.329Z,13.85
2023-02-23T10:18:45.594Z,13.69
2023-02-23T10:20:14.206Z,14.16
2023-02-23T10:21:40.332Z,14.21
2023-02-23T10:22:41.638Z,13.82
2023-02-23T10:23:58.714Z,13.98
2023-02-23T10:25:17.909Z,14.14
2023-02-23T10:26:23.297Z,14.22
2023-02-23T10:27:24.657Z,13.98
2023-02-23T10:28:22.824Z,14.49
2023-02-23T10:29:32.594Z,14.47
2023-02-23T10:30:32.832Z,13.38
2023-02-23T10:31:47.821Z,14.39
2023-02-23T10:32:57.646Z,14.58
2023-02-23T10:34:02.397Z,14.85
2023-02-23T10:34:59.962Z,14.80
2023-02-23T10:36:13.766Z,13.75
2023-02-23T10:37:19.754Z,14.76
2023-02-23T10:38:19.013Z,15.01
2023-02-23T10:39:16.105Z,14.87
2023-02-23T10:40:18.592Z,15.26
2023-02-23T10:41:15.420Z,15.01
2023-02-23T10:42:20.592Z,15.19
2023-02-23T10:43:17.455Z,15.16
2023-02-23T10:44:25.333Z,15.05
2023-02-23T10:45:25.701Z,15.09
2023-02-23T10:46:31.421Z,15.04
2023-02-23T10:47:37.851Z,13.53
2023-02-23T10:48:43.230Z,15.03
2023-02-23T10:49:49.852Z,14.88
2023-02-23T10:50:50.097Z,14.57
2023-02-23T10:51:47.031Z,14.75
2023-02-23T10:52:51.049Z,15.03
2023-02-23T10:53:47.911Z,15.03
2023-02-23T10:54:47.867Z,14.87
2023-02-23T10:55:46.981Z,14.84
2023-02-23T10:56:47.055Z,15.08
2023-02-23T10:57:43.940Z,15.01
2023-02-23T10:58:46.686Z,15.49
2023-02-23T11:00:10.657Z,14.41
2023-02-23T11:01:07.653Z,15.11
2023-02-23T11:02:25.814Z,15.51
2023-02-23T11:03:33.185Z,15.54
2023-02-23T11:04:32.820Z,15.41
2023-02-23T11:05:43.047Z,15.68
2023-02-23T11:06:40.257Z,15.71
2023-02-23T11:07:37.072Z,15.68
2023-02-23T11:08:36.569Z,15.40
2023-02-23T11:09:45.647Z,15.64
2023-02-23T11:10:54.731Z,14.98
2023-02-23T11:12:00.436Z,14.81
2023-02-23T11:12:57.275Z,15.57
2023-02-23T11:13:56.774Z,15.58
2023-02-23T11:14:59.344Z,15.84
2023-02-23T11:16:27.641Z,15.90
2023-02-23T11:17:33.482Z,15.26
2023-02-23T11:18:30.999Z,15.21
2023-02-23T11:19:37.186Z,15.17
2023-02-23T11:20:44.385Z,15.84
2023-02-23T11:21:41.368Z,16.08
2023-02-23T11:22:42.371Z,15.91
2023-02-23T11:23:41.458Z,15.51
2023-02-23T11:24:41.589Z,16.06
2023-02-23T11:25:45.198Z,16.48
2023-02-23T11:27:08.087Z,16.60
2023-02-23T11:28:05.403Z,15.05
2023-02-23T11:29:14.233Z,16.18
2023-02-23T11:30:13.773Z,15.55
2023-02-23T11:31:21.296Z,16.02
2023-02-23T11:32:22.882Z,16.21
2023-02-23T11:33:31.587Z,14.76
2023-02-23T11:34:41.243Z,16.14
2023-02-23T11:35:38.569Z,16.27
2023-02-23T11:36:37.933Z,16.48
2023-02-23T11:37:36.459Z,16.59
2023-02-23T11:38:34.226Z,16.53
2023-02-23T11:39:31.102Z,16.46
2023-02-23T11:40:31.532Z,16.31
2023-02-23T11:41:29.571Z,16.14
2023-02-23T11:42:29.673Z,16.45
2023-02-23T11:43:26.576Z,16.77
2023-02-23T11:44:24.338Z,16.93
2023-02-23T11:45:24.271Z,16.35
2023-02-23T11:46:22.934Z,16.13
2023-02-23T11:47:22.935Z,16.30
2023-02-23T11:48:22.963Z,16.28
2023-02-23T11:49:48.077Z,16.62
2023-02-23T11:50:49.805Z,16.64
2023-02-23T11:51:50.458Z,16.41
2023-02-23T11:52:54.785Z,16.55
2023-02-23T11:53:52.510Z,16.51
2023-02-23T11:54:55.500Z,16.62
2023-02-23T11:55:58.217Z,15.54
2023-02-23T11:56:57.042Z,15.52
2023-02-23T11:57:59.583Z,16.54
2023-02-23T11:59:07.513Z,15.47
2023-02-23T12:00:14.267Z,16.32
2023-02-23T12:01:45.783Z,16.61
2023-02-23T12:02:58.813Z,16.67
2023-02-23T12:03:57.896Z,15.82
2023-02-23T12:05:15.691Z,15.70
2023-02-23T12:06:12.546Z,16.74
2023-02-23T12:07:38.959Z,16.96
2023-02-23T12:08:45.348Z,16.82
2023-02-23T12:09:47.058Z,16.47
2023-02-23T12:10:55.843Z,16.49
2023-02-23T12:12:15.692Z,16.64
2023-02-23T12:13:30.413Z,16.29
2023-02-23T12:14:36.461Z,16.61
2023-02-23T12:15:33.324Z,17.12
2023-02-23T12:16:44.099Z,16.82
2023-02-23T12:17:50.897Z,17.13
2023-02-23T12:18:56.771Z,16.87
2023-02-23T12:20:13.124Z,17.14
2023-02-23T12:21:27.671Z,16.71
2023-02-23T12:22:43.507Z,16.80
2023-02-23T12:23:48.670Z,16.39
2023-02-23T12:24:48.642Z,16.72
2023-02-23T12:25:54.241Z,16.66
2023-02-23T12:27:27.925Z,16.92
2023-02-23T12:28:37.190Z,16.73
2023-02-23T12:29:33.866Z,17.11
2023-02-23T12:31:00.134Z,17.19
2023-02-23T12:32:06.532Z,16.39
2023-02-23T12:33:10.394Z,17.14
2023-02-23T12:34:25.637Z,17.24
2023-02-23T12:35:26.864Z,17.36
2023-02-23T12:36:38.546Z,17.32
2023-02-23T12:37:45.208Z,17.21
2023-02-23T12:38:57.493Z,15.64
2023-02-23T12:40:04.010Z,16.33
2023-02-23T12:41:19.914Z,17.00
2023-02-23T12:42:25.956Z,16.48
2023-02-23T12:43:40.394Z,17.39
2023-02-23T12:44:52.052Z,17.61
2023-02-23T12:46:02.891Z,17.30
2023-02-23T12:47:07.975Z,17.52
2023-02-23T12:48:23.713Z,17.22
2023-02-23T12:49:49.373Z,17.23
2023-02-23T12:50:53.671Z,17.08
2023-02-23T12:52:08.959Z,17.15
2023-02-23T12:53:34.114Z,17.48
2023-02-23T12:54:32.811Z,17.51
2023-02-23T12:55:52.692Z,17.38
2023-02-23T12:56:58.375Z,17.46
2023-02-23T12:58:22.498Z,17.13
2023-02-23T12:59:40.365Z,17.21
2023-02-23T13:01:12.285Z,16.88
2023-02-23T13:02:22.969Z,17.30
2023-02-23T13:03:55.196Z,17.36
2023-02-23T13:05:13.201Z,17.56
2023-02-23T13:06:25.158Z,17.69
2023-02-23T13:07:34.960Z,17.68
2023-02-23T13:08:37.524Z,17.66
2023-02-23T13:09:43.218Z,17.64
2023-02-23T13:10:39.894Z,17.52
2023-02-23T13:11:54.669Z,17.59
2023-02-23T13:12:59.986Z,17.72
2023-02-23T13:14:37.262Z,17.58
2023-02-23T13:15:55.254Z,17.43
2023-02-23T13:17:16.763Z,17.71
2023-02-23T13:18:49.119Z,17.74
2023-02-23T13:20:05.654Z,17.58
2023-02-23T13:21:22.144Z,17.66
2023-02-23T13:22:28.911Z,17.30
2023-02-23T13:23:41.569Z,17.46
2023-02-23T13:24:45.717Z,17.55
2023-02-23T13:25:51.136Z,17.83
2023-02-23T13:26:53.336Z,17.79
2023-02-23T13:27:57.400Z,16.77
2023-02-23T13:29:24.855Z,17.86
2023-02-23T13:30:22.649Z,17.83
2023-02-23T13:31:24.871Z,17.93
2023-02-23T13:32:26.338Z,17.81
2023-02-23T13:33:43.662Z,17.82
2023-02-23T13:35:02.029Z,17.80
2023-02-23T13:36:00.673Z,17.37
2023-02-23T13:37:02.477Z,17.64
2023-02-23T13:38:39.349Z,17.68
2023-02-23T13:39:48.180Z,17.38
2023-02-23T13:41:18.446Z,17.62
2023-02-23T13:42:22.534Z,17.63
2023-02-23T13:43:29.058Z,17.47
2023-02-23T13:45:06.525Z,17.60
2023-02-23T13:46:25.776Z,17.84
2023-02-23T13:47:47.213Z,17.91
2023-02-23T13:48:57.335Z,17.85
2023-02-23T13:50:22.587Z,17.66
2023-02-23T13:51:34.914Z,17.76
2023-02-23T13:52:42.503Z,17.38
2023-02-23T13:53:46.989Z,16.77
2023-02-23T13:54:57.029Z,17.43
2023-02-23T13:56:01.762Z,17.01
2023-02-23T13:57:03.079Z,17.73
2023-02-23T13:58:17.404Z,18.00
2023-02-23T13:59:24.178Z,17.76
2023-02-23T14:00:23.698Z,17.77
2023-02-23T14:01:31.643Z,17.03
2023-02-23T14:02:41.223Z,17.79
2023-02-23T14:03:47.252Z,17.96
2023-02-23T14:04:44.113Z,17.62
2023-02-23T14:05:45.322Z,17.81
2023-02-23T14:06:59.075Z,17.07
2023-02-23T14:08:05.264Z,17.61
2023-02-23T14:09:13.352Z,17.86
2023-02-23T14:10:20.184Z,17.84
2023-02-23T14:11:57.360Z,17.87
2023-02-23T14:13:13.036Z,17.75
2023-02-23T14:14:17.051Z,17.71
2023-02-23T14:15:27.385Z,17.83
2023-02-23T14:16:24.435Z,17.00
2023-02-23T14:17:21.175Z,17.80
2023-02-23T14:18:17.922Z,17.83
2023-02-23T14:19:37.513Z,17.90